Startpagina
METAR-TAF:

METAR-TAF

Vliegvelden :

Murtala Muhammed International Airport

Lagos, Nigeria

breedte: 06-35N, lengte: 003-20E, hoogte: 40 m

Actueel weer

Dit bericht is 25 minuten geleden gemaakt, om 01:00 UTC
Weinig wind
Temperatuur 26°C
Vochtigheid 89%
Druk 1012 hPa
Zicht: 3500 m
Heiigheid

METAR: DNMM 290100Z 00000KT 3500 HZ NSC 26/24 Q1012 TEMPO 3000 HZ

Tijdstip: 02:25 (01:25 UTC)

Verwachting

Dit bericht is 2 uur en het 25 minuten geleden gemaakt, om 23:00 UTC
Verwachting geldig van 29 om 00 UTC tot 30 om 06 UTC
Wind 2 kt uit variabele richting
Zicht: 3000 m
Heiigheid
Tijdelijke
van 29 om 05 UTC tot 29 om 08 UTC
Zicht: 1200 m
nevel
Wijzigt naar
van 29 om 09 UTC tot 29 om 11 UTC
Wind 10 kt uit het noordnoordoosten

TAF: DNMM 282300Z 2900/3006 VRB02KT 3000 HZ NSC TEMPO 2905/2908 1200 BR BECMG 2909/2911 03010KT

Waarnemingen en weersverwachtingen van meer dan 4000 vliegvelden (METAR en TAF).

De beschikbare stations zijn de gele en rode punten op de kaart.

Ga met uw muis naar het station om de naam te zien.

Klik dan om waarnemingen en weersverwachtingen te zien.

kaart wijzigen: klik op de groene knoppen met een zwart kruis om in te zoomen, op de groene knop met een streepje om uit te zoomen of op de groene pijlen voor aangrenzende kaarten.


METAR-TAF: